createdAt,value
2023-03-07T00:00:24.405Z,5.60
2023-03-07T00:02:52.384Z,5.60
2023-03-07T00:05:19.897Z,5.50
2023-03-07T00:07:47.606Z,5.60
2023-03-07T00:10:14.975Z,5.60
2023-03-07T00:12:42.413Z,5.60
2023-03-07T00:15:10.614Z,5.60
2023-03-07T00:17:38.863Z,5.70
2023-03-07T00:20:07.532Z,5.60
2023-03-07T00:22:35.631Z,5.70
2023-03-07T00:25:03.321Z,5.70
2023-03-07T00:27:31.995Z,5.70
2023-03-07T00:29:59.104Z,5.70
2023-03-07T00:32:27.188Z,5.70
2023-03-07T00:34:56.322Z,5.70
2023-03-07T00:37:24.030Z,5.60
2023-03-07T00:39:51.568Z,5.60
2023-03-07T00:42:18.838Z,5.50
2023-03-07T00:44:46.038Z,5.50
2023-03-07T00:47:13.216Z,5.50
2023-03-07T00:49:40.487Z,5.50
2023-03-07T00:52:07.944Z,5.50
2023-03-07T00:54:35.345Z,5.50
2023-03-07T00:57:02.967Z,5.40
2023-03-07T00:59:31.038Z,5.40
2023-03-07T01:01:58.330Z,5.40
2023-03-07T01:04:25.716Z,5.40
2023-03-07T01:06:53.085Z,5.40
2023-03-07T01:09:20.289Z,5.40
2023-03-07T01:11:49.834Z,5.40
2023-03-07T01:14:18.475Z,5.40
2023-03-07T01:16:45.878Z,5.40
2023-03-07T01:19:13.387Z,5.40
2023-03-07T01:21:42.772Z,5.40
2023-03-07T01:24:13.505Z,5.40
2023-03-07T01:26:42.295Z,5.40
2023-03-07T01:29:12.031Z,5.40
2023-03-07T01:31:39.539Z,5.30
2023-03-07T01:34:07.809Z,5.30
2023-03-07T01:36:37.794Z,5.20
2023-03-07T01:39:07.819Z,5.20
2023-03-07T01:41:38.691Z,5.20
2023-03-07T01:44:16.702Z,5.20
2023-03-07T01:46:48.287Z,5.20
2023-03-07T01:49:25.547Z,5.30
2023-03-07T01:52:02.724Z,5.30
2023-03-07T01:54:32.870Z,5.30
2023-03-07T01:57:03.987Z,5.20
2023-03-07T01:59:35.564Z,5.20
2023-03-07T02:02:10.357Z,5.10
2023-03-07T02:04:47.488Z,5.10
2023-03-07T02:07:16.701Z,5.10
2023-03-07T02:09:48.290Z,5.10
2023-03-07T02:12:16.222Z,5.00
2023-03-07T02:14:46.112Z,5.10
2023-03-07T02:17:15.039Z,5.10
2023-03-07T02:20:05.824Z,5.10
2023-03-07T02:22:33.437Z,5.20
2023-03-07T02:25:02.957Z,5.10
2023-03-07T02:27:36.710Z,5.10
2023-03-07T02:30:06.232Z,5.10
2023-03-07T02:32:33.583Z,5.20
2023-03-07T02:35:00.828Z,5.20
2023-03-07T02:37:33.685Z,5.10
2023-03-07T02:40:07.396Z,5.10
2023-03-07T02:42:41.888Z,5.00
2023-03-07T02:45:16.442Z,5.00
2023-03-07T02:47:45.080Z,4.90
2023-03-07T02:50:16.345Z,4.90
2023-03-07T02:52:46.963Z,4.90
2023-03-07T02:55:14.254Z,4.80
2023-03-07T02:57:48.130Z,4.80
2023-03-07T03:00:15.723Z,4.70
2023-03-07T03:02:43.214Z,4.80
2023-03-07T03:05:10.554Z,4.80
2023-03-07T03:07:38.249Z,4.80
2023-03-07T03:10:06.750Z,4.80
2023-03-07T03:12:34.359Z,4.80
2023-03-07T03:15:02.053Z,4.70
2023-03-07T03:17:29.275Z,4.70
2023-03-07T03:19:57.987Z,4.70
2023-03-07T03:22:25.158Z,4.70
2023-03-07T03:24:52.423Z,4.70
2023-03-07T03:27:20.842Z,4.70
2023-03-07T03:29:50.579Z,4.80
2023-03-07T03:32:18.188Z,4.80
2023-03-07T03:34:47.032Z,4.80
2023-03-07T03:37:14.436Z,4.80
2023-03-07T03:39:42.106Z,4.80
2023-03-07T03:42:09.732Z,4.80
2023-03-07T03:44:37.245Z,4.80
2023-03-07T03:47:04.946Z,4.80
2023-03-07T03:49:33.187Z,4.80
2023-03-07T03:52:00.443Z,4.70
2023-03-07T03:54:28.225Z,4.70
2023-03-07T03:56:57.867Z,4.70
2023-03-07T03:59:25.071Z,4.70
2023-03-07T04:01:52.765Z,4.80
2023-03-07T04:04:19.958Z,4.70
2023-03-07T04:06:47.565Z,4.70
2023-03-07T04:09:15.238Z,4.70
2023-03-07T04:11:46.386Z,4.80
2023-03-07T04:14:14.092Z,4.70
2023-03-07T04:16:41.425Z,4.70
2023-03-07T04:19:13.243Z,4.70
2023-03-07T04:21:42.833Z,4.70
2023-03-07T04:24:11.202Z,4.70
2023-03-07T04:26:38.709Z,4.70
2023-03-07T04:29:05.962Z,4.60
2023-03-07T04:31:43.845Z,4.70
2023-03-07T04:34:12.519Z,4.60
2023-03-07T04:36:40.175Z,4.60
2023-03-07T04:39:07.309Z,4.50
2023-03-07T04:41:35.516Z,4.50
2023-03-07T04:44:08.627Z,4.40
2023-03-07T04:46:35.882Z,4.40
2023-03-07T04:49:03.502Z,4.30
2023-03-07T04:51:30.648Z,4.30
2023-03-07T04:53:58.443Z,4.20
2023-03-07T04:56:26.172Z,4.30
2023-03-07T04:58:53.626Z,4.30
2023-03-07T05:01:20.920Z,4.20
2023-03-07T05:03:48.860Z,4.20
2023-03-07T05:06:19.193Z,4.20
2023-03-07T05:08:49.763Z,4.20
2023-03-07T05:11:17.404Z,4.10
2023-03-07T05:13:44.939Z,4.00
2023-03-07T05:16:18.021Z,4.10
2023-03-07T05:18:45.319Z,4.00
2023-03-07T05:21:13.280Z,4.00
2023-03-07T05:23:40.882Z,3.90
2023-03-07T05:26:09.574Z,3.80
2023-03-07T05:28:37.574Z,3.70
2023-03-07T05:31:05.198Z,3.70
2023-03-07T05:33:32.970Z,3.70
2023-03-07T05:36:01.469Z,3.70
2023-03-07T05:38:29.800Z,3.60
2023-03-07T05:40:57.042Z,3.60
2023-03-07T05:43:24.547Z,3.50
2023-03-07T05:45:53.047Z,3.50
2023-03-07T05:48:20.386Z,3.50
2023-03-07T05:50:47.766Z,3.50
2023-03-07T05:53:17.546Z,3.50
2023-03-07T05:55:45.488Z,3.50
2023-03-07T05:58:15.073Z,3.60
2023-03-07T06:00:44.388Z,3.60
2023-03-07T06:03:11.875Z,3.60
2023-03-07T06:05:39.377Z,3.50
2023-03-07T06:08:07.653Z,3.50
2023-03-07T06:10:37.316Z,3.40
2023-03-07T06:13:05.012Z,3.40
2023-03-07T06:15:32.253Z,3.40
2023-03-07T06:18:04.710Z,3.30
2023-03-07T06:20:31.995Z,3.30
2023-03-07T06:23:01.318Z,3.30
2023-03-07T06:25:28.863Z,3.30
2023-03-07T06:28:00.942Z,3.30
2023-03-07T06:30:30.438Z,3.20
2023-03-07T06:32:57.641Z,3.20
2023-03-07T06:35:25.046Z,3.20
2023-03-07T06:37:52.335Z,3.20
2023-03-07T06:40:19.792Z,3.20
2023-03-07T06:42:47.047Z,3.20
2023-03-07T06:45:14.588Z,3.20
2023-03-07T06:47:41.762Z,3.20
2023-03-07T06:50:10.910Z,3.20
2023-03-07T06:52:39.091Z,3.20
2023-03-07T06:55:06.930Z,3.30
2023-03-07T06:57:34.860Z,3.30
2023-03-07T07:00:05.549Z,3.30
2023-03-07T07:02:34.147Z,3.20
2023-03-07T07:05:03.481Z,3.20
2023-03-07T07:07:31.036Z,3.10
2023-03-07T07:09:59.476Z,3.10
2023-03-07T07:12:27.678Z,3.20
2023-03-07T07:14:55.549Z,3.20
2023-03-07T07:17:23.064Z,3.20
2023-03-07T07:19:50.475Z,3.30
2023-03-07T07:22:18.341Z,3.30
2023-03-07T07:24:45.656Z,3.40
2023-03-07T07:27:13.044Z,3.40
2023-03-07T07:29:40.769Z,3.30
2023-03-07T07:32:10.029Z,3.30
2023-03-07T07:34:37.380Z,3.30
2023-03-07T07:37:05.455Z,3.40
2023-03-07T07:39:32.797Z,3.40
2023-03-07T07:42:00.156Z,3.40
2023-03-07T07:44:31.646Z,3.40
2023-03-07T07:47:02.935Z,3.40
2023-03-07T07:49:30.473Z,3.30
2023-03-07T07:51:57.744Z,3.40
2023-03-07T07:54:25.663Z,3.30
2023-03-07T07:56:53.055Z,3.30
2023-03-07T07:59:22.028Z,3.30
2023-03-07T08:01:49.850Z,3.40
2023-03-07T08:04:17.011Z,3.40
2023-03-07T08:06:44.598Z,3.50
2023-03-07T08:09:12.332Z,3.50
2023-03-07T08:11:39.706Z,3.50
2023-03-07T08:14:07.110Z,3.50
2023-03-07T08:16:34.507Z,3.60
2023-03-07T08:19:01.754Z,3.60
2023-03-07T08:21:29.454Z,3.60
2023-03-07T08:23:57.321Z,3.60
2023-03-07T08:26:25.122Z,3.70
2023-03-07T08:28:52.581Z,3.70
2023-03-07T08:31:24.053Z,3.70
2023-03-07T08:33:51.750Z,3.80
2023-03-07T08:36:19.841Z,3.70
2023-03-07T08:38:51.752Z,3.80
2023-03-07T08:41:21.499Z,3.80
2023-03-07T08:43:49.614Z,3.80
2023-03-07T08:46:17.533Z,3.80
2023-03-07T08:48:45.237Z,3.90
2023-03-07T08:51:15.998Z,3.90
2023-03-07T08:53:44.882Z,3.90
2023-03-07T08:56:15.304Z,4.00
2023-03-07T08:58:42.784Z,4.00
2023-03-07T09:01:10.517Z,4.00
2023-03-07T09:03:37.795Z,3.90
2023-03-07T09:06:05.923Z,4.00
2023-03-07T09:08:33.267Z,4.10
2023-03-07T09:11:03.592Z,4.20
2023-03-07T09:13:36.240Z,4.30
2023-03-07T09:16:08.693Z,4.20
2023-03-07T09:18:36.594Z,4.20
2023-03-07T09:21:05.718Z,4.20
2023-03-07T09:23:33.546Z,4.00
2023-03-07T09:26:05.272Z,4.00
2023-03-07T09:28:32.745Z,4.00
2023-03-07T09:31:00.565Z,3.90
2023-03-07T09:33:28.010Z,3.90
2023-03-07T09:35:55.716Z,3.80
2023-03-07T09:38:23.093Z,3.90
2023-03-07T09:40:50.320Z,3.90
2023-03-07T09:43:21.371Z,3.90
2023-03-07T09:46:31.688Z,3.90
2023-03-07T09:49:14.310Z,3.90
2023-03-07T09:51:44.025Z,3.90
2023-03-07T09:54:19.071Z,3.90
2023-03-07T09:56:54.614Z,3.90
2023-03-07T09:59:24.074Z,4.00
2023-03-07T10:02:01.766Z,4.00
2023-03-07T10:04:43.331Z,4.20
2023-03-07T10:07:14.255Z,4.20
2023-03-07T10:09:44.055Z,4.20
2023-03-07T10:12:18.533Z,4.20
2023-03-07T10:14:54.965Z,4.10
2023-03-07T10:17:31.745Z,4.10
2023-03-07T10:20:25.346Z,4.10
2023-03-07T10:23:21.524Z,4.00
2023-03-07T10:25:56.258Z,4.10
2023-03-07T10:28:28.624Z,4.10
2023-03-07T10:31:13.949Z,4.10
2023-03-07T10:33:45.604Z,4.10
2023-03-07T10:36:19.958Z,4.10
2023-03-07T10:39:01.217Z,4.00
2023-03-07T10:41:29.945Z,3.90
2023-03-07T10:43:58.360Z,3.80
2023-03-07T10:46:31.049Z,3.80
2023-03-07T10:49:01.724Z,3.80
2023-03-07T10:51:56.580Z,3.90
2023-03-07T10:54:30.787Z,3.90
2023-03-07T10:57:17.389Z,3.90
2023-03-07T10:59:48.573Z,4.00
2023-03-07T11:02:45.549Z,4.00
2023-03-07T11:05:33.909Z,4.00
2023-03-07T11:08:20.418Z,3.90
2023-03-07T11:10:48.064Z,4.10
2023-03-07T11:13:18.753Z,4.20
2023-03-07T11:15:47.168Z,4.20
2023-03-07T11:18:38.957Z,4.20
2023-03-07T11:21:06.554Z,4.30
2023-03-07T11:23:33.868Z,4.30
2023-03-07T11:26:22.654Z,4.20
2023-03-07T11:29:05.391Z,4.20
2023-03-07T11:31:40.386Z,4.20
2023-03-07T11:34:25.473Z,4.20
2023-03-07T11:37:00.599Z,4.20
2023-03-07T11:39:30.090Z,4.20
2023-03-07T11:42:04.325Z,4.30
2023-03-07T11:44:32.568Z,4.30
2023-03-07T11:47:12.783Z,4.30
2023-03-07T11:49:41.063Z,4.30
2023-03-07T11:52:30.340Z,4.30
2023-03-07T11:55:17.342Z,4.40
2023-03-07T11:58:24.515Z,4.40
2023-03-07T12:01:16.897Z,4.40
2023-03-07T12:04:04.039Z,4.40
2023-03-07T12:06:51.108Z,4.50
2023-03-07T12:09:45.388Z,4.60
2023-03-07T12:12:47.197Z,4.60
2023-03-07T12:15:25.766Z,4.50
2023-03-07T12:18:21.961Z,4.40
2023-03-07T12:21:16.553Z,4.50
2023-03-07T12:23:49.928Z,4.50
2023-03-07T12:26:24.512Z,4.50
2023-03-07T12:29:03.323Z,4.40
2023-03-07T12:31:39.334Z,4.50
2023-03-07T12:34:20.233Z,4.50
2023-03-07T12:37:08.430Z,4.40
2023-03-07T12:39:58.519Z,4.40
2023-03-07T12:42:44.067Z,4.50
2023-03-07T12:45:15.218Z,4.50
2023-03-07T12:47:51.824Z,4.60
2023-03-07T12:50:44.178Z,4.60
2023-03-07T12:53:22.581Z,4.60
2023-03-07T12:56:02.852Z,4.60
2023-03-07T12:59:05.880Z,4.50
2023-03-07T13:01:38.368Z,4.50
2023-03-07T13:04:43.567Z,4.50
2023-03-07T13:07:13.497Z,4.60
2023-03-07T13:09:44.515Z,4.60
2023-03-07T13:12:16.577Z,4.70
2023-03-07T13:14:46.043Z,4.60
2023-03-07T13:17:33.757Z,4.70
2023-03-07T13:20:01.260Z,4.80
2023-03-07T13:22:28.473Z,4.90
2023-03-07T13:24:58.695Z,4.90
2023-03-07T13:27:31.263Z,4.90
2023-03-07T13:30:18.789Z,5.10
2023-03-07T13:32:49.650Z,5.20
2023-03-07T13:35:32.462Z,5.20
2023-03-07T13:38:19.714Z,5.20
2023-03-07T13:40:47.194Z,5.20
2023-03-07T13:43:30.048Z,5.20
2023-03-07T13:45:58.339Z,5.30
2023-03-07T13:48:29.501Z,5.40
2023-03-07T13:50:58.798Z,5.30
2023-03-07T13:53:41.848Z,5.40
2023-03-07T13:56:16.699Z,5.40
2023-03-07T13:58:56.060Z,5.40
2023-03-07T14:01:45.579Z,5.30
2023-03-07T14:04:41.074Z,5.30
2023-03-07T14:07:22.014Z,5.40
2023-03-07T14:09:53.858Z,5.40
2023-03-07T14:12:37.155Z,5.30
2023-03-07T14:15:24.336Z,5.30
2023-03-07T14:18:23.756Z,5.30
2023-03-07T14:21:20.223Z,5.40
2023-03-07T14:24:14.343Z,5.20
2023-03-07T14:26:49.866Z,5.20
2023-03-07T14:29:23.033Z,5.20
2023-03-07T14:31:53.649Z,5.30
2023-03-07T14:34:21.870Z,5.30
2023-03-07T14:37:07.770Z,5.30
2023-03-07T14:40:08.985Z,5.30
2023-03-07T14:42:36.461Z,5.40
2023-03-07T14:45:24.696Z,5.40
2023-03-07T14:48:12.908Z,5.40
2023-03-07T14:50:44.605Z,5.40
2023-03-07T14:53:20.907Z,5.40
2023-03-07T14:55:50.970Z,5.40
2023-03-07T14:58:22.087Z,5.40
2023-03-07T15:01:07.228Z,5.40
2023-03-07T15:03:34.515Z,5.40
2023-03-07T15:06:03.799Z,5.40
2023-03-07T15:08:35.484Z,5.40
2023-03-07T15:11:06.814Z,5.30
2023-03-07T15:14:13.840Z,5.40
2023-03-07T15:16:47.863Z,5.30
2023-03-07T15:19:34.614Z,5.30
2023-03-07T15:22:04.802Z,5.30
2023-03-07T15:24:44.629Z,5.30
2023-03-07T15:27:15.679Z,5.30
2023-03-07T15:29:48.455Z,5.20
2023-03-07T15:32:34.862Z,5.10
2023-03-07T15:35:08.016Z,5.20
2023-03-07T15:37:51.505Z,5.20
2023-03-07T15:40:26.103Z,5.20
2023-03-07T15:42:54.595Z,5.20
2023-03-07T15:45:34.078Z,5.20
2023-03-07T15:48:09.224Z,5.20
2023-03-07T15:50:37.844Z,5.20
2023-03-07T15:53:10.448Z,5.20
2023-03-07T15:55:39.064Z,5.30
2023-03-07T15:58:13.977Z,5.30
2023-03-07T16:00:42.126Z,5.20
2023-03-07T16:03:25.369Z,5.20
2023-03-07T16:05:53.107Z,5.20
2023-03-07T16:08:21.269Z,5.20
2023-03-07T16:11:07.012Z,5.10
2023-03-07T16:13:42.076Z,5.20
2023-03-07T16:16:12.706Z,5.10
2023-03-07T16:18:40.953Z,5.10
2023-03-07T16:21:15.909Z,5.10
2023-03-07T16:23:43.954Z,5.00
2023-03-07T16:26:16.596Z,5.00
2023-03-07T16:28:44.318Z,5.00
2023-03-07T16:31:13.259Z,5.00
2023-03-07T16:33:40.750Z,5.00
2023-03-07T16:36:10.376Z,5.00
2023-03-07T16:38:38.060Z,5.00
2023-03-07T16:41:16.049Z,5.00
2023-03-07T16:43:44.576Z,5.00
2023-03-07T16:46:15.813Z,5.00
2023-03-07T16:48:44.033Z,5.00
2023-03-07T16:51:21.988Z,4.90
2023-03-07T16:53:51.383Z,4.90
2023-03-07T16:56:30.616Z,4.90
2023-03-07T16:59:00.152Z,4.90
2023-03-07T17:01:28.238Z,4.90
2023-03-07T17:03:56.713Z,4.90
2023-03-07T17:06:37.242Z,4.90
2023-03-07T17:09:09.671Z,4.90
2023-03-07T17:11:38.922Z,4.90
2023-03-07T17:14:08.984Z,4.80
2023-03-07T17:16:40.057Z,4.80
2023-03-07T17:19:08.182Z,4.80
2023-03-07T17:21:35.488Z,4.90
2023-03-07T17:24:02.610Z,4.90
2023-03-07T17:26:31.876Z,4.90
2023-03-07T17:29:02.815Z,5.00
2023-03-07T17:31:30.423Z,4.90
2023-03-07T17:33:57.849Z,5.00
2023-03-07T17:36:25.172Z,4.90
2023-03-07T17:38:52.781Z,4.90
2023-03-07T17:41:20.036Z,4.90
2023-03-07T17:43:47.682Z,4.90
2023-03-07T17:46:15.351Z,4.90
2023-03-07T17:48:42.581Z,4.80
2023-03-07T17:51:11.595Z,4.90
2023-03-07T17:53:39.155Z,4.90
2023-03-07T17:56:08.702Z,4.90
2023-03-07T17:58:36.403Z,5.00
2023-03-07T18:01:03.543Z,5.00
2023-03-07T18:03:30.953Z,5.00
2023-03-07T18:05:59.430Z,5.00
2023-03-07T18:08:28.789Z,5.00
2023-03-07T18:11:06.170Z,5.00
2023-03-07T18:13:33.636Z,5.00
2023-03-07T18:16:01.923Z,4.90
2023-03-07T18:18:33.451Z,4.90
2023-03-07T18:21:04.942Z,4.90
2023-03-07T18:23:33.718Z,5.00
2023-03-07T18:26:03.769Z,4.90
2023-03-07T18:28:31.355Z,4.90
2023-03-07T18:31:00.247Z,4.90
2023-03-07T18:33:29.360Z,4.90
2023-03-07T18:35:57.814Z,4.90
2023-03-07T18:38:26.129Z,4.90
2023-03-07T18:41:07.480Z,5.00
2023-03-07T18:43:34.825Z,5.00
2023-03-07T18:46:05.193Z,5.00
2023-03-07T18:48:36.567Z,4.90
2023-03-07T18:51:06.921Z,4.90
2023-03-07T18:53:36.203Z,4.90
2023-03-07T18:56:07.225Z,4.90
2023-03-07T18:58:34.593Z,4.90
2023-03-07T19:01:11.518Z,4.90
2023-03-07T19:03:38.935Z,4.90
2023-03-07T19:06:06.531Z,4.90
2023-03-07T19:08:34.228Z,4.90
2023-03-07T19:11:04.862Z,4.90
2023-03-07T19:13:32.506Z,5.00
2023-03-07T19:16:18.443Z,5.00
2023-03-07T19:18:46.424Z,5.00
2023-03-07T19:21:16.098Z,5.00
2023-03-07T19:23:43.245Z,5.00
2023-03-07T19:26:12.841Z,5.00
2023-03-07T19:28:40.760Z,5.00
2023-03-07T19:31:10.649Z,4.90
2023-03-07T19:33:38.384Z,4.90
2023-03-07T19:36:08.065Z,4.90
2023-03-07T19:38:35.868Z,4.90
2023-03-07T19:41:04.744Z,5.00
2023-03-07T19:43:32.235Z,4.90
2023-03-07T19:45:59.542Z,4.90
2023-03-07T19:48:27.602Z,4.90
2023-03-07T19:50:54.793Z,4.90
2023-03-07T19:53:22.139Z,4.90
2023-03-07T19:55:49.493Z,4.90
2023-03-07T19:58:16.858Z,4.90
2023-03-07T20:00:46.587Z,4.90
2023-03-07T20:03:17.164Z,4.90
2023-03-07T20:05:46.933Z,4.90
2023-03-07T20:08:14.890Z,4.80
2023-03-07T20:10:42.844Z,4.80
2023-03-07T20:13:10.100Z,4.90
2023-03-07T20:15:37.523Z,4.80
2023-03-07T20:18:06.117Z,4.80
2023-03-07T20:20:36.439Z,4.80
2023-03-07T20:23:03.632Z,4.80
2023-03-07T20:25:31.425Z,4.80
2023-03-07T20:27:58.585Z,4.80
2023-03-07T20:30:25.793Z,4.70
2023-03-07T20:32:53.261Z,4.80
2023-03-07T20:35:20.497Z,4.80
2023-03-07T20:37:47.715Z,4.80
2023-03-07T20:40:14.899Z,4.80
2023-03-07T20:42:42.101Z,4.80
2023-03-07T20:45:09.748Z,4.80
2023-03-07T20:47:38.596Z,4.80
2023-03-07T20:50:06.782Z,4.80
2023-03-07T20:52:36.513Z,4.70
2023-03-07T20:55:05.193Z,4.70
2023-03-07T20:57:32.628Z,4.70
2023-03-07T21:00:00.452Z,4.70
2023-03-07T21:02:27.864Z,4.80
2023-03-07T21:04:54.989Z,4.70
2023-03-07T21:07:22.198Z,4.70
2023-03-07T21:09:51.047Z,4.70
2023-03-07T21:12:18.420Z,4.70
2023-03-07T21:14:45.589Z,4.60
2023-03-07T21:17:13.569Z,4.70
2023-03-07T21:19:40.634Z,4.60
2023-03-07T21:22:07.874Z,4.70
2023-03-07T21:24:34.985Z,4.70
2023-03-07T21:27:02.370Z,4.70
2023-03-07T21:29:29.549Z,4.60
2023-03-07T21:31:56.662Z,4.70
2023-03-07T21:34:24.597Z,4.70
2023-03-07T21:36:56.387Z,4.70
2023-03-07T21:39:25.176Z,4.70
2023-03-07T21:41:52.322Z,4.60
2023-03-07T21:44:19.537Z,4.50
2023-03-07T21:46:46.840Z,4.50
2023-03-07T21:49:14.600Z,4.50
2023-03-07T21:51:41.840Z,4.50
2023-03-07T21:54:09.223Z,4.50
2023-03-07T21:56:36.559Z,4.50
2023-03-07T21:59:04.027Z,4.50
2023-03-07T22:01:31.316Z,4.50
2023-03-07T22:03:59.797Z,4.50
2023-03-07T22:06:28.444Z,4.50
2023-03-07T22:08:56.041Z,4.50
2023-03-07T22:11:23.403Z,4.50
2023-03-07T22:13:50.537Z,4.50
2023-03-07T22:16:20.837Z,4.50
2023-03-07T22:18:56.605Z,4.60
2023-03-07T22:21:26.976Z,4.60
2023-03-07T22:23:58.453Z,4.50
2023-03-07T22:26:25.863Z,4.50
2023-03-07T22:28:54.239Z,4.50
2023-03-07T22:31:21.649Z,4.50
2023-03-07T22:33:49.179Z,4.50
2023-03-07T22:36:16.902Z,4.50
2023-03-07T22:38:44.542Z,4.50
2023-03-07T22:41:16.177Z,4.40
2023-03-07T22:43:43.620Z,4.40
2023-03-07T22:46:11.367Z,4.40
2023-03-07T22:48:39.260Z,4.50
2023-03-07T22:51:13.709Z,4.50
2023-03-07T22:53:41.076Z,4.40
2023-03-07T22:56:16.623Z,4.40
2023-03-07T22:58:44.547Z,4.30
2023-03-07T23:01:17.094Z,4.20
2023-03-07T23:03:44.556Z,4.30
2023-03-07T23:06:12.152Z,4.30
2023-03-07T23:08:39.775Z,4.30
2023-03-07T23:11:09.117Z,4.30
2023-03-07T23:13:37.255Z,4.30
2023-03-07T23:16:10.412Z,4.40
2023-03-07T23:18:38.693Z,4.40
2023-03-07T23:21:07.856Z,4.30
2023-03-07T23:23:35.404Z,4.30
2023-03-07T23:26:03.175Z,4.30
2023-03-07T23:28:30.999Z,4.30
2023-03-07T23:30:58.693Z,4.30
2023-03-07T23:33:26.084Z,4.30
2023-03-07T23:35:53.508Z,4.30
2023-03-07T23:38:20.564Z,4.30
2023-03-07T23:40:47.886Z,4.30
2023-03-07T23:43:15.236Z,4.30
2023-03-07T23:45:42.448Z,4.30
2023-03-07T23:48:09.769Z,4.20
2023-03-07T23:50:38.241Z,4.20
2023-03-07T23:53:05.350Z,4.20
2023-03-07T23:55:32.952Z,4.30
2023-03-07T23:58:00.220Z,4.20
